sensor_id;sensor_type;location;lat;lon;timestamp;temperature;humidity
73360;DHT22;63092;43.582;19.528;2022-10-31T00:02:03;9.30;93.20
73360;DHT22;63092;43.582;19.528;2022-10-31T00:04:28;9.30;93.30
73360;DHT22;63092;43.582;19.528;2022-10-31T00:06:54;9.30;93.20
73360;DHT22;63092;43.582;19.528;2022-10-31T00:09:20;9.40;93.10
73360;DHT22;63092;43.582;19.528;2022-10-31T00:11:45;9.50;93.10
73360;DHT22;63092;43.582;19.528;2022-10-31T00:14:11;9.50;93.10
73360;DHT22;63092;43.582;19.528;2022-10-31T00:16:37;9.50;92.90
73360;DHT22;63092;43.582;19.528;2022-10-31T00:19:04;9.40;92.70
73360;DHT22;63092;43.582;19.528;2022-10-31T00:21:32;9.30;92.70
73360;DHT22;63092;43.582;19.528;2022-10-31T00:23:59;9.20;92.80
73360;DHT22;63092;43.582;19.528;2022-10-31T00:26:27;9.30;92.70
73360;DHT22;63092;43.582;19.528;2022-10-31T00:28:52;9.40;92.70
73360;DHT22;63092;43.582;19.528;2022-10-31T00:31:18;9.40;92.70
73360;DHT22;63092;43.582;19.528;2022-10-31T00:33:44;9.40;92.60
73360;DHT22;63092;43.582;19.528;2022-10-31T00:36:14;9.40;92.40
73360;DHT22;63092;43.582;19.528;2022-10-31T00:38:44;9.30;92.40
73360;DHT22;63092;43.582;19.528;2022-10-31T00:41:11;9.20;92.50
73360;DHT22;63092;43.582;19.528;2022-10-31T00:43:38;9.10;92.70
73360;DHT22;63092;43.582;19.528;2022-10-31T00:46:04;9.00;93.00
73360;DHT22;63092;43.582;19.528;2022-10-31T00:48:29;8.90;93.30
73360;DHT22;63092;43.582;19.528;2022-10-31T00:50:55;9.00;93.20
73360;DHT22;63092;43.582;19.528;2022-10-31T00:53:21;9.00;93.10
73360;DHT22;63092;43.582;19.528;2022-10-31T00:55:47;9.00;93.00
73360;DHT22;63092;43.582;19.528;2022-10-31T00:58:13;9.10;93.10
73360;DHT22;63092;43.582;19.528;2022-10-31T01:00:39;9.00;93.40
73360;DHT22;63092;43.582;19.528;2022-10-31T01:03:05;9.00;93.30
73360;DHT22;63092;43.582;19.528;2022-10-31T01:05:31;9.10;93.30
73360;DHT22;63092;43.582;19.528;2022-10-31T01:07:56;9.10;93.00
73360;DHT22;63092;43.582;19.528;2022-10-31T01:10:22;9.20;92.80
73360;DHT22;63092;43.582;19.528;2022-10-31T01:12:49;9.20;92.70
73360;DHT22;63092;43.582;19.528;2022-10-31T01:15:20;9.10;92.70
73360;DHT22;63092;43.582;19.528;2022-10-31T01:17:46;9.10;92.70
73360;DHT22;63092;43.582;19.528;2022-10-31T01:20:13;9.00;92.70
73360;DHT22;63092;43.582;19.528;2022-10-31T01:22:39;8.90;92.70
73360;DHT22;63092;43.582;19.528;2022-10-31T01:25:06;8.80;92.80
73360;DHT22;63092;43.582;19.528;2022-10-31T01:27:32;8.90;92.90
73360;DHT22;63092;43.582;19.528;2022-10-31T01:29:58;8.80;93.00
73360;DHT22;63092;43.582;19.528;2022-10-31T01:32:23;8.90;93.00
73360;DHT22;63092;43.582;19.528;2022-10-31T01:34:49;8.90;92.90
73360;DHT22;63092;43.582;19.528;2022-10-31T01:37:16;8.90;92.90
73360;DHT22;63092;43.582;19.528;2022-10-31T01:39:41;8.90;93.20
73360;DHT22;63092;43.582;19.528;2022-10-31T01:42:17;8.80;93.40
73360;DHT22;63092;43.582;19.528;2022-10-31T01:44:51;8.70;93.20
73360;DHT22;63092;43.582;19.528;2022-10-31T01:47:21;8.70;93.10
73360;DHT22;63092;43.582;19.528;2022-10-31T01:49:56;8.70;93.10
73360;DHT22;63092;43.582;19.528;2022-10-31T01:52:36;8.70;93.20
73360;DHT22;63092;43.582;19.528;2022-10-31T01:55:16;8.50;93.40
73360;DHT22;63092;43.582;19.528;2022-10-31T01:57:44;8.60;93.30
73360;DHT22;63092;43.582;19.528;2022-10-31T02:00:11;8.60;93.30
73360;DHT22;63092;43.582;19.528;2022-10-31T02:02:37;8.60;93.30
73360;DHT22;63092;43.582;19.528;2022-10-31T02:05:06;8.60;93.40
73360;DHT22;63092;43.582;19.528;2022-10-31T02:07:42;8.60;93.30
73360;DHT22;63092;43.582;19.528;2022-10-31T02:10:09;8.60;93.20
73360;DHT22;63092;43.582;19.528;2022-10-31T02:12:35;8.40;93.30
73360;DHT22;63092;43.582;19.528;2022-10-31T02:15:04;8.50;93.40
73360;DHT22;63092;43.582;19.528;2022-10-31T02:17:30;8.50;93.10
73360;DHT22;63092;43.582;19.528;2022-10-31T02:20:15;8.50;93.10
73360;DHT22;63092;43.582;19.528;2022-10-31T02:39:12;8.40;93.10
73360;DHT22;63092;43.582;19.528;2022-10-31T02:44:14;8.20;93.20
73360;DHT22;63092;43.582;19.528;2022-10-31T02:46:48;8.20;93.40
73360;DHT22;63092;43.582;19.528;2022-10-31T02:49:35;8.20;93.30
73360;DHT22;63092;43.582;19.528;2022-10-31T02:52:17;8.20;93.20
73360;DHT22;63092;43.582;19.528;2022-10-31T02:54:45;8.30;93.20
73360;DHT22;63092;43.582;19.528;2022-10-31T02:57:11;8.30;93.00
73360;DHT22;63092;43.582;19.528;2022-10-31T02:59:41;8.30;93.10
73360;DHT22;63092;43.582;19.528;2022-10-31T03:03:08;8.30;93.30
73360;DHT22;63092;43.582;19.528;2022-10-31T03:10:58;8.20;93.30
73360;DHT22;63092;43.582;19.528;2022-10-31T03:16:29;8.20;93.10
73360;DHT22;63092;43.582;19.528;2022-10-31T03:19:07;8.10;93.30
73360;DHT22;63092;43.582;19.528;2022-10-31T03:21:44;8.10;93.20
73360;DHT22;63092;43.582;19.528;2022-10-31T03:24:11;8.10;93.30
73360;DHT22;63092;43.582;19.528;2022-10-31T03:26:46;8.10;93.50
73360;DHT22;63092;43.582;19.528;2022-10-31T03:29:15;8.10;93.40
73360;DHT22;63092;43.582;19.528;2022-10-31T03:34:49;8.10;93.10
73360;DHT22;63092;43.582;19.528;2022-10-31T03:37:18;8.00;93.20
73360;DHT22;63092;43.582;19.528;2022-10-31T03:39:46;7.80;93.30
73360;DHT22;63092;43.582;19.528;2022-10-31T03:42:23;7.80;93.40
73360;DHT22;63092;43.582;19.528;2022-10-31T03:45:23;7.80;93.60
73360;DHT22;63092;43.582;19.528;2022-10-31T03:47:49;7.80;93.50
73360;DHT22;63092;43.582;19.528;2022-10-31T03:50:15;7.80;93.50
73360;DHT22;63092;43.582;19.528;2022-10-31T03:52:45;7.80;93.70
73360;DHT22;63092;43.582;19.528;2022-10-31T03:57:58;7.80;93.60
73360;DHT22;63092;43.582;19.528;2022-10-31T04:00:24;7.90;93.60
73360;DHT22;63092;43.582;19.528;2022-10-31T04:05:27;7.90;93.30
73360;DHT22;63092;43.582;19.528;2022-10-31T04:07:55;7.90;93.30
73360;DHT22;63092;43.582;19.528;2022-10-31T04:10:23;7.80;93.50
73360;DHT22;63092;43.582;19.528;2022-10-31T04:12:54;7.70;93.60
73360;DHT22;63092;43.582;19.528;2022-10-31T04:15:23;7.70;93.70
73360;DHT22;63092;43.582;19.528;2022-10-31T04:17:50;7.70;93.80
73360;DHT22;63092;43.582;19.528;2022-10-31T04:20:17;7.70;93.70
73360;DHT22;63092;43.582;19.528;2022-10-31T04:22:43;7.60;93.80
73360;DHT22;63092;43.582;19.528;2022-10-31T04:25:09;7.60;93.70
73360;DHT22;63092;43.582;19.528;2022-10-31T04:27:35;7.60;93.80
73360;DHT22;63092;43.582;19.528;2022-10-31T04:30:01;7.50;93.70
73360;DHT22;63092;43.582;19.528;2022-10-31T04:32:27;7.50;93.70
73360;DHT22;63092;43.582;19.528;2022-10-31T04:34:52;7.40;93.60
73360;DHT22;63092;43.582;19.528;2022-10-31T04:37:18;7.50;93.70
73360;DHT22;63092;43.582;19.528;2022-10-31T04:39:44;7.40;93.90
73360;DHT22;63092;43.582;19.528;2022-10-31T04:42:09;7.30;93.90
73360;DHT22;63092;43.582;19.528;2022-10-31T04:44:35;7.40;93.70
73360;DHT22;63092;43.582;19.528;2022-10-31T04:47:01;7.40;93.70
73360;DHT22;63092;43.582;19.528;2022-10-31T04:49:26;7.30;93.90
73360;DHT22;63092;43.582;19.528;2022-10-31T04:51:52;7.30;93.90
73360;DHT22;63092;43.582;19.528;2022-10-31T04:54:18;7.30;93.70
73360;DHT22;63092;43.582;19.528;2022-10-31T04:56:43;7.30;93.60
73360;DHT22;63092;43.582;19.528;2022-10-31T04:59:09;7.40;93.60
73360;DHT22;63092;43.582;19.528;2022-10-31T05:01:35;7.30;93.70
73360;DHT22;63092;43.582;19.528;2022-10-31T05:04:00;7.30;93.60
73360;DHT22;63092;43.582;19.528;2022-10-31T05:06:26;7.20;93.80
73360;DHT22;63092;43.582;19.528;2022-10-31T05:08:52;7.20;94.00
73360;DHT22;63092;43.582;19.528;2022-10-31T05:11:18;7.00;93.90
73360;DHT22;63092;43.582;19.528;2022-10-31T05:13:43;7.00;94.00
73360;DHT22;63092;43.582;19.528;2022-10-31T05:16:09;7.00;93.90
73360;DHT22;63092;43.582;19.528;2022-10-31T05:18:35;6.80;94.00
73360;DHT22;63092;43.582;19.528;2022-10-31T05:21:01;6.60;94.40
73360;DHT22;63092;43.582;19.528;2022-10-31T05:23:26;6.60;94.60
73360;DHT22;63092;43.582;19.528;2022-10-31T05:25:52;6.50;94.80
73360;DHT22;63092;43.582;19.528;2022-10-31T05:28:18;6.50;94.80
73360;DHT22;63092;43.582;19.528;2022-10-31T05:30:43;6.50;95.00
73360;DHT22;63092;43.582;19.528;2022-10-31T05:33:09;6.40;95.20
73360;DHT22;63092;43.582;19.528;2022-10-31T05:35:35;6.50;95.30
73360;DHT22;63092;43.582;19.528;2022-10-31T05:38:00;6.50;95.20
73360;DHT22;63092;43.582;19.528;2022-10-31T05:40:27;6.50;95.20
73360;DHT22;63092;43.582;19.528;2022-10-31T05:42:54;6.50;95.40
73360;DHT22;63092;43.582;19.528;2022-10-31T05:45:21;6.60;95.20
73360;DHT22;63092;43.582;19.528;2022-10-31T05:47:55;6.70;95.10
73360;DHT22;63092;43.582;19.528;2022-10-31T05:50:22;6.80;94.90
73360;DHT22;63092;43.582;19.528;2022-10-31T05:52:55;6.90;94.70
73360;DHT22;63092;43.582;19.528;2022-10-31T05:55:20;7.00;94.60
73360;DHT22;63092;43.582;19.528;2022-10-31T05:57:46;7.00;94.50
73360;DHT22;63092;43.582;19.528;2022-10-31T06:00:12;7.00;94.40
73360;DHT22;63092;43.582;19.528;2022-10-31T06:02:38;7.00;94.40
73360;DHT22;63092;43.582;19.528;2022-10-31T06:05:04;6.90;94.60
73360;DHT22;63092;43.582;19.528;2022-10-31T06:07:33;7.10;94.40
73360;DHT22;63092;43.582;19.528;2022-10-31T06:09:59;7.20;94.20
73360;DHT22;63092;43.582;19.528;2022-10-31T06:12:26;7.20;94.20
73360;DHT22;63092;43.582;19.528;2022-10-31T06:14:51;7.10;94.40
73360;DHT22;63092;43.582;19.528;2022-10-31T06:17:17;7.10;94.40
73360;DHT22;63092;43.582;19.528;2022-10-31T06:19:43;7.10;94.70
73360;DHT22;63092;43.582;19.528;2022-10-31T06:22:08;7.10;94.70
73360;DHT22;63092;43.582;19.528;2022-10-31T06:24:37;7.20;94.60
73360;DHT22;63092;43.582;19.528;2022-10-31T06:27:03;7.20;94.40
73360;DHT22;63092;43.582;19.528;2022-10-31T06:29:29;7.20;94.60
73360;DHT22;63092;43.582;19.528;2022-10-31T06:31:55;7.20;94.60
73360;DHT22;63092;43.582;19.528;2022-10-31T06:34:21;7.10;94.80
73360;DHT22;63092;43.582;19.528;2022-10-31T06:36:47;7.20;94.80
73360;DHT22;63092;43.582;19.528;2022-10-31T06:39:13;7.30;94.90
73360;DHT22;63092;43.582;19.528;2022-10-31T06:41:39;7.30;94.70
73360;DHT22;63092;43.582;19.528;2022-10-31T06:44:07;7.20;94.90
73360;DHT22;63092;43.582;19.528;2022-10-31T06:46:33;7.40;94.70
73360;DHT22;63092;43.582;19.528;2022-10-31T06:48:59;7.50;94.50
73360;DHT22;63092;43.582;19.528;2022-10-31T06:51:25;7.70;94.40
73360;DHT22;63092;43.582;19.528;2022-10-31T06:53:51;7.70;94.10
73360;DHT22;63092;43.582;19.528;2022-10-31T06:56:16;7.80;94.10
73360;DHT22;63092;43.582;19.528;2022-10-31T06:58:42;7.60;94.20
73360;DHT22;63092;43.582;19.528;2022-10-31T07:01:08;7.60;94.50
73360;DHT22;63092;43.582;19.528;2022-10-31T07:03:34;7.50;94.40
73360;DHT22;63092;43.582;19.528;2022-10-31T07:05:59;7.60;94.30
73360;DHT22;63092;43.582;19.528;2022-10-31T07:08:25;7.70;94.20
73360;DHT22;63092;43.582;19.528;2022-10-31T07:10:56;7.60;94.20
73360;DHT22;63092;43.582;19.528;2022-10-31T07:13:22;7.80;94.20
73360;DHT22;63092;43.582;19.528;2022-10-31T07:15:52;7.90;94.30
73360;DHT22;63092;43.582;19.528;2022-10-31T07:18:19;8.00;94.10
73360;DHT22;63092;43.582;19.528;2022-10-31T07:20:45;8.10;93.80
73360;DHT22;63092;43.582;19.528;2022-10-31T07:23:11;8.30;93.60
73360;DHT22;63092;43.582;19.528;2022-10-31T07:25:38;8.40;93.50
73360;DHT22;63092;43.582;19.528;2022-10-31T07:28:04;8.60;93.20
73360;DHT22;63092;43.582;19.528;2022-10-31T07:30:30;8.60;93.20
73360;DHT22;63092;43.582;19.528;2022-10-31T07:32:56;8.60;93.10
73360;DHT22;63092;43.582;19.528;2022-10-31T07:35:24;8.90;93.00
73360;DHT22;63092;43.582;19.528;2022-10-31T07:37:50;9.00;92.60
73360;DHT22;63092;43.582;19.528;2022-10-31T07:40:16;9.00;92.50
73360;DHT22;63092;43.582;19.528;2022-10-31T07:42:44;9.20;92.30
73360;DHT22;63092;43.582;19.528;2022-10-31T07:45:15;9.20;92.20
73360;DHT22;63092;43.582;19.528;2022-10-31T07:47:44;9.30;92.10
73360;DHT22;63092;43.582;19.528;2022-10-31T07:50:18;9.30;91.90
73360;DHT22;63092;43.582;19.528;2022-10-31T07:52:44;9.30;92.20
73360;DHT22;63092;43.582;19.528;2022-10-31T07:55:10;9.50;91.90
73360;DHT22;63092;43.582;19.528;2022-10-31T07:57:36;9.40;92.20
73360;DHT22;63092;43.582;19.528;2022-10-31T08:00:07;9.50;92.10
73360;DHT22;63092;43.582;19.528;2022-10-31T08:02:33;9.40;92.10
73360;DHT22;63092;43.582;19.528;2022-10-31T08:04:59;9.60;92.10
73360;DHT22;63092;43.582;19.528;2022-10-31T08:07:27;9.80;91.90
73360;DHT22;63092;43.582;19.528;2022-10-31T08:09:54;9.80;91.90
73360;DHT22;63092;43.582;19.528;2022-10-31T08:12:20;9.90;91.80
73360;DHT22;63092;43.582;19.528;2022-10-31T08:14:45;10.00;91.50
73360;DHT22;63092;43.582;19.528;2022-10-31T08:17:11;10.20;91.30
73360;DHT22;63092;43.582;19.528;2022-10-31T08:19:37;10.20;91.40
73360;DHT22;63092;43.582;19.528;2022-10-31T08:22:03;10.30;91.30
73360;DHT22;63092;43.582;19.528;2022-10-31T08:24:28;10.40;91.20
73360;DHT22;63092;43.582;19.528;2022-10-31T08:26:54;10.50;91.00
73360;DHT22;63092;43.582;19.528;2022-10-31T08:29:33;10.50;91.00
73360;DHT22;63092;43.582;19.528;2022-10-31T08:31:59;10.60;90.90
73360;DHT22;63092;43.582;19.528;2022-10-31T08:34:25;10.70;90.90
73360;DHT22;63092;43.582;19.528;2022-10-31T08:36:52;10.70;90.90
73360;DHT22;63092;43.582;19.528;2022-10-31T08:39:17;10.80;90.80
73360;DHT22;63092;43.582;19.528;2022-10-31T08:41:43;10.80;90.50
73360;DHT22;63092;43.582;19.528;2022-10-31T08:44:09;10.90;90.40
73360;DHT22;63092;43.582;19.528;2022-10-31T08:46:35;11.00;90.30
73360;DHT22;63092;43.582;19.528;2022-10-31T08:49:01;11.10;90.30
73360;DHT22;63092;43.582;19.528;2022-10-31T08:51:27;11.20;89.50
73360;DHT22;63092;43.582;19.528;2022-10-31T08:53:52;11.30;90.20
73360;DHT22;63092;43.582;19.528;2022-10-31T08:56:18;11.40;90.30
73360;DHT22;63092;43.582;19.528;2022-10-31T08:58:44;11.50;90.10
73360;DHT22;63092;43.582;19.528;2022-10-31T09:01:09;11.60;90.00
73360;DHT22;63092;43.582;19.528;2022-10-31T09:03:35;11.70;89.80
73360;DHT22;63092;43.582;19.528;2022-10-31T09:06:02;11.80;89.90
73360;DHT22;63092;43.582;19.528;2022-10-31T09:08:32;11.90;89.60
73360;DHT22;63092;43.582;19.528;2022-10-31T09:10:58;12.10;89.40
73360;DHT22;63092;43.582;19.528;2022-10-31T09:13:24;12.20;88.90
73360;DHT22;63092;43.582;19.528;2022-10-31T09:15:50;12.30;88.90
73360;DHT22;63092;43.582;19.528;2022-10-31T09:18:21;12.40;87.90
73360;DHT22;63092;43.582;19.528;2022-10-31T09:20:48;12.50;88.30
73360;DHT22;63092;43.582;19.528;2022-10-31T09:23:19;12.70;88.00
73360;DHT22;63092;43.582;19.528;2022-10-31T09:25:47;12.80;87.40
73360;DHT22;63092;43.582;19.528;2022-10-31T09:28:16;12.80;87.10
73360;DHT22;63092;43.582;19.528;2022-10-31T09:30:42;13.00;87.50
73360;DHT22;63092;43.582;19.528;2022-10-31T09:33:11;13.10;86.30
73360;DHT22;63092;43.582;19.528;2022-10-31T09:35:38;13.20;86.10
73360;DHT22;63092;43.582;19.528;2022-10-31T09:38:19;13.30;85.80
73360;DHT22;63092;43.582;19.528;2022-10-31T09:40:46;13.40;84.90
73360;DHT22;63092;43.582;19.528;2022-10-31T09:56:15;14.20;81.70
73360;DHT22;63092;43.582;19.528;2022-10-31T09:58:58;14.30;80.20
73360;DHT22;63092;43.582;19.528;2022-10-31T10:10:00;14.80;78.40
73360;DHT22;63092;43.582;19.528;2022-10-31T10:12:50;14.90;78.10
73360;DHT22;63092;43.582;19.528;2022-10-31T10:18:09;15.20;77.00
73360;DHT22;63092;43.582;19.528;2022-10-31T10:20:57;15.30;76.90
73360;DHT22;63092;43.582;19.528;2022-10-31T10:23:32;15.40;76.70
73360;DHT22;63092;43.582;19.528;2022-10-31T10:28:41;15.70;75.00
73360;DHT22;63092;43.582;19.528;2022-10-31T10:31:14;15.70;74.10
73360;DHT22;63092;43.582;19.528;2022-10-31T10:34:02;15.80;74.40
73360;DHT22;63092;43.582;19.528;2022-10-31T10:36:44;15.90;75.20
73360;DHT22;63092;43.582;19.528;2022-10-31T10:39:25;16.00;74.80
73360;DHT22;63092;43.582;19.528;2022-10-31T10:41:55;16.10;74.50
73360;DHT22;63092;43.582;19.528;2022-10-31T10:44:46;16.30;74.10
73360;DHT22;63092;43.582;19.528;2022-10-31T10:47:49;16.50;73.30
73360;DHT22;63092;43.582;19.528;2022-10-31T10:50:20;16.60;72.20
73360;DHT22;63092;43.582;19.528;2022-10-31T10:53:05;16.70;71.40
73360;DHT22;63092;43.582;19.528;2022-10-31T10:55:38;16.80;70.20
73360;DHT22;63092;43.582;19.528;2022-10-31T10:58:09;16.80;69.60
73360;DHT22;63092;43.582;19.528;2022-10-31T11:00:41;17.00;69.20
73360;DHT22;63092;43.582;19.528;2022-10-31T11:03:08;17.10;68.50
73360;DHT22;63092;43.582;19.528;2022-10-31T11:08:10;17.30;68.70
73360;DHT22;63092;43.582;19.528;2022-10-31T11:10:36;17.30;69.70
73360;DHT22;63092;43.582;19.528;2022-10-31T11:13:17;17.40;69.30
73360;DHT22;63092;43.582;19.528;2022-10-31T11:18:32;17.50;68.50
73360;DHT22;63092;43.582;19.528;2022-10-31T11:21:01;17.60;68.20
73360;DHT22;63092;43.582;19.528;2022-10-31T11:23:28;17.80;68.80
73360;DHT22;63092;43.582;19.528;2022-10-31T11:26:00;17.70;66.90
73360;DHT22;63092;43.582;19.528;2022-10-31T11:28:27;17.80;67.70
73360;DHT22;63092;43.582;19.528;2022-10-31T11:31:08;17.90;67.30
73360;DHT22;63092;43.582;19.528;2022-10-31T11:33:49;17.90;67.70
73360;DHT22;63092;43.582;19.528;2022-10-31T11:36:33;18.00;66.10
73360;DHT22;63092;43.582;19.528;2022-10-31T11:39:02;18.10;64.80
73360;DHT22;63092;43.582;19.528;2022-10-31T11:41:29;18.10;64.00
73360;DHT22;63092;43.582;19.528;2022-10-31T11:44:12;18.20;63.40
73360;DHT22;63092;43.582;19.528;2022-10-31T11:46:41;18.40;63.10
73360;DHT22;63092;43.582;19.528;2022-10-31T11:49:15;18.50;64.00
73360;DHT22;63092;43.582;19.528;2022-10-31T11:51:42;18.60;63.70
73360;DHT22;63092;43.582;19.528;2022-10-31T11:54:24;18.60;63.60
73360;DHT22;63092;43.582;19.528;2022-10-31T11:56:51;18.70;63.80
73360;DHT22;63092;43.582;19.528;2022-10-31T11:59:30;18.70;63.50
73360;DHT22;63092;43.582;19.528;2022-10-31T12:01:58;18.80;63.60
73360;DHT22;63092;43.582;19.528;2022-10-31T12:04:38;18.80;63.70
73360;DHT22;63092;43.582;19.528;2022-10-31T12:07:06;18.80;63.70
73360;DHT22;63092;43.582;19.528;2022-10-31T12:09:36;19.00;63.20
73360;DHT22;63092;43.582;19.528;2022-10-31T12:12:24;19.00;63.20
73360;DHT22;63092;43.582;19.528;2022-10-31T12:15:38;19.10;62.30
73360;DHT22;63092;43.582;19.528;2022-10-31T12:18:17;19.20;62.10
73360;DHT22;63092;43.582;19.528;2022-10-31T12:31:33;19.40;61.10
73360;DHT22;63092;43.582;19.528;2022-10-31T12:34:37;19.40;61.20
73360;DHT22;63092;43.582;19.528;2022-10-31T12:53:39;19.70;60.10
73360;DHT22;63092;43.582;19.528;2022-10-31T12:56:12;19.70;60.40
73360;DHT22;63092;43.582;19.528;2022-10-31T12:58:56;19.70;60.30
73360;DHT22;63092;43.582;19.528;2022-10-31T13:01:35;19.70;60.10
73360;DHT22;63092;43.582;19.528;2022-10-31T13:04:18;19.70;60.00
73360;DHT22;63092;43.582;19.528;2022-10-31T13:06:50;19.70;59.40
73360;DHT22;63092;43.582;19.528;2022-10-31T13:12:20;19.70;59.60
73360;DHT22;63092;43.582;19.528;2022-10-31T13:14:53;19.70;59.50
73360;DHT22;63092;43.582;19.528;2022-10-31T13:20:13;19.80;58.80
73360;DHT22;63092;43.582;19.528;2022-10-31T13:22:44;19.80;58.90
73360;DHT22;63092;43.582;19.528;2022-10-31T13:25:21;19.80;59.00
73360;DHT22;63092;43.582;19.528;2022-10-31T13:27:53;19.80;59.10
73360;DHT22;63092;43.582;19.528;2022-10-31T13:30:36;19.80;59.90
73360;DHT22;63092;43.582;19.528;2022-10-31T13:33:25;19.80;59.80
73360;DHT22;63092;43.582;19.528;2022-10-31T13:46:38;19.40;61.30
73360;DHT22;63092;43.582;19.528;2022-10-31T13:51:50;19.10;64.40
73360;DHT22;63092;43.582;19.528;2022-10-31T13:54:31;18.90;63.70
73360;DHT22;63092;43.582;19.528;2022-10-31T13:56:58;18.80;64.00
73360;DHT22;63092;43.582;19.528;2022-10-31T13:59:26;18.80;64.00
73360;DHT22;63092;43.582;19.528;2022-10-31T14:01:56;18.70;64.30
73360;DHT22;63092;43.582;19.528;2022-10-31T14:04:23;18.70;64.40
73360;DHT22;63092;43.582;19.528;2022-10-31T14:09:27;18.60;64.80
73360;DHT22;63092;43.582;19.528;2022-10-31T14:11:55;18.60;65.30
73360;DHT22;63092;43.582;19.528;2022-10-31T14:14:29;18.40;66.10
73360;DHT22;63092;43.582;19.528;2022-10-31T14:16:57;18.30;67.30
73360;DHT22;63092;43.582;19.528;2022-10-31T14:19:23;18.20;68.40
73360;DHT22;63092;43.582;19.528;2022-10-31T14:21:50;18.10;69.30
73360;DHT22;63092;43.582;19.528;2022-10-31T14:26:55;17.90;71.30
73360;DHT22;63092;43.582;19.528;2022-10-31T14:34:50;17.60;73.70
73360;DHT22;63092;43.582;19.528;2022-10-31T14:40:23;17.50;73.30
73360;DHT22;63092;43.582;19.528;2022-10-31T14:51:32;17.20;75.20
73360;DHT22;63092;43.582;19.528;2022-10-31T14:53:55;17.20;75.60
73360;DHT22;63092;43.582;19.528;2022-10-31T14:58:50;17.00;76.20
73360;DHT22;63092;43.582;19.528;2022-10-31T15:01:35;17.00;76.50
73360;DHT22;63092;43.582;19.528;2022-10-31T15:04:27;16.90;76.70
73360;DHT22;63092;43.582;19.528;2022-10-31T15:07:23;16.90;76.90
73360;DHT22;63092;43.582;19.528;2022-10-31T15:10:02;16.90;77.70
73360;DHT22;63092;43.582;19.528;2022-10-31T15:12:32;16.80;77.80
73360;DHT22;63092;43.582;19.528;2022-10-31T15:15:11;16.80;78.20
73360;DHT22;63092;43.582;19.528;2022-10-31T15:17:41;16.70;78.40
73360;DHT22;63092;43.582;19.528;2022-10-31T15:20:12;16.70;78.90
73360;DHT22;63092;43.582;19.528;2022-10-31T15:22:42;16.70;79.00
73360;DHT22;63092;43.582;19.528;2022-10-31T15:25:28;16.70;79.30
73360;DHT22;63092;43.582;19.528;2022-10-31T15:27:55;16.60;79.90
73360;DHT22;63092;43.582;19.528;2022-10-31T15:30:22;16.50;79.70
73360;DHT22;63092;43.582;19.528;2022-10-31T15:32:49;16.60;79.80
73360;DHT22;63092;43.582;19.528;2022-10-31T15:35:27;16.50;79.80
73360;DHT22;63092;43.582;19.528;2022-10-31T15:37:53;16.50;80.10
73360;DHT22;63092;43.582;19.528;2022-10-31T15:40:21;16.50;80.60
73360;DHT22;63092;43.582;19.528;2022-10-31T15:42:56;16.40;80.80
73360;DHT22;63092;43.582;19.528;2022-10-31T15:45:24;16.30;81.00
73360;DHT22;63092;43.582;19.528;2022-10-31T15:48:18;16.30;81.40
73360;DHT22;63092;43.582;19.528;2022-10-31T15:50:51;16.30;81.50
73360;DHT22;63092;43.582;19.528;2022-10-31T15:53:24;16.20;81.80
73360;DHT22;63092;43.582;19.528;2022-10-31T15:55:59;16.20;81.80
73360;DHT22;63092;43.582;19.528;2022-10-31T15:58:26;16.10;82.10
73360;DHT22;63092;43.582;19.528;2022-10-31T16:00:59;16.10;82.40
73360;DHT22;63092;43.582;19.528;2022-10-31T16:03:28;16.00;82.50
73360;DHT22;63092;43.582;19.528;2022-10-31T16:06:00;16.00;82.40
73360;DHT22;63092;43.582;19.528;2022-10-31T16:11:16;15.90;82.20
73360;DHT22;63092;43.582;19.528;2022-10-31T16:13:53;15.90;82.40
73360;DHT22;63092;43.582;19.528;2022-10-31T16:16:20;15.80;82.80
73360;DHT22;63092;43.582;19.528;2022-10-31T16:18:48;15.70;82.90
73360;DHT22;63092;43.582;19.528;2022-10-31T16:21:15;15.70;83.20
73360;DHT22;63092;43.582;19.528;2022-10-31T16:23:46;15.60;83.20
73360;DHT22;63092;43.582;19.528;2022-10-31T16:26:17;15.60;83.20
73360;DHT22;63092;43.582;19.528;2022-10-31T16:28:50;15.50;82.70
73360;DHT22;63092;43.582;19.528;2022-10-31T16:31:16;15.50;82.60
73360;DHT22;63092;43.582;19.528;2022-10-31T16:33:41;15.40;82.60
73360;DHT22;63092;43.582;19.528;2022-10-31T16:38:59;15.30;82.80
73360;DHT22;63092;43.582;19.528;2022-10-31T16:41:25;15.30;82.50
73360;DHT22;63092;43.582;19.528;2022-10-31T16:43:52;15.30;82.70
73360;DHT22;63092;43.582;19.528;2022-10-31T16:46:24;15.30;83.20
73360;DHT22;63092;43.582;19.528;2022-10-31T16:48:50;15.20;83.80
73360;DHT22;63092;43.582;19.528;2022-10-31T16:51:16;15.20;84.30
73360;DHT22;63092;43.582;19.528;2022-10-31T16:53:42;15.10;84.60
73360;DHT22;63092;43.582;19.528;2022-10-31T16:56:16;15.00;84.10
73360;DHT22;63092;43.582;19.528;2022-10-31T16:58:43;15.00;84.00
73360;DHT22;63092;43.582;19.528;2022-10-31T17:01:10;15.00;84.30
73360;DHT22;63092;43.582;19.528;2022-10-31T17:03:37;15.00;84.40
73360;DHT22;63092;43.582;19.528;2022-10-31T17:06:03;14.90;84.20
73360;DHT22;63092;43.582;19.528;2022-10-31T17:08:29;14.90;84.00
73360;DHT22;63092;43.582;19.528;2022-10-31T17:10:56;14.80;84.20
73360;DHT22;63092;43.582;19.528;2022-10-31T17:13:27;14.80;84.50
73360;DHT22;63092;43.582;19.528;2022-10-31T17:15:56;14.70;84.80
73360;DHT22;63092;43.582;19.528;2022-10-31T17:18:23;14.70;84.60
73360;DHT22;63092;43.582;19.528;2022-10-31T17:20:49;14.70;84.20
73360;DHT22;63092;43.582;19.528;2022-10-31T17:23:16;14.60;84.20
73360;DHT22;63092;43.582;19.528;2022-10-31T17:25:42;14.60;84.30
73360;DHT22;63092;43.582;19.528;2022-10-31T17:28:13;14.60;84.30
73360;DHT22;63092;43.582;19.528;2022-10-31T17:30:40;14.50;84.10
73360;DHT22;63092;43.582;19.528;2022-10-31T17:33:08;14.50;84.00
73360;DHT22;63092;43.582;19.528;2022-10-31T17:35:35;14.40;84.30
73360;DHT22;63092;43.582;19.528;2022-10-31T17:38:01;14.40;84.80
73360;DHT22;63092;43.582;19.528;2022-10-31T17:40:26;14.40;84.90
73360;DHT22;63092;43.582;19.528;2022-10-31T17:42:56;14.40;85.00
73360;DHT22;63092;43.582;19.528;2022-10-31T17:45:23;14.30;85.00
73360;DHT22;63092;43.582;19.528;2022-10-31T17:47:50;14.30;84.80
73360;DHT22;63092;43.582;19.528;2022-10-31T17:50:18;14.30;84.90
73360;DHT22;63092;43.582;19.528;2022-10-31T17:52:45;14.30;85.10
73360;DHT22;63092;43.582;19.528;2022-10-31T17:55:11;14.20;85.30
73360;DHT22;63092;43.582;19.528;2022-10-31T17:57:37;14.20;86.00
73360;DHT22;63092;43.582;19.528;2022-10-31T18:00:06;14.20;85.90
73360;DHT22;63092;43.582;19.528;2022-10-31T18:02:32;14.10;86.20
73360;DHT22;63092;43.582;19.528;2022-10-31T18:04:58;13.90;86.50